sensor_id;sensor_type;location;lat;lon;timestamp;P1;durP1;ratioP1;P2;durP2;ratioP2
2760;SDS011;15420;48.636;9.798;2022-08-21T00:00:26;3.70;;;2.17;;
2760;SDS011;15420;48.636;9.798;2022-08-21T00:02:58;4.17;;;2.43;;
2760;SDS011;15420;48.636;9.798;2022-08-21T00:05:28;4.27;;;2.50;;
2760;SDS011;15420;48.636;9.798;2022-08-21T00:07:55;2.40;;;2.20;;
2760;SDS011;15420;48.636;9.798;2022-08-21T00:10:21;2.70;;;2.30;;
2760;SDS011;15420;48.636;9.798;2022-08-21T00:12:48;4.90;;;2.63;;
2760;SDS011;15420;48.636;9.798;2022-08-21T00:15:17;2.50;;;2.30;;
2760;SDS011;15420;48.636;9.798;2022-08-21T00:17:46;3.60;;;2.30;;
2760;SDS011;15420;48.636;9.798;2022-08-21T00:20:15;4.20;;;2.33;;
2760;SDS011;15420;48.636;9.798;2022-08-21T00:22:45;3.43;;;3.13;;
2760;SDS011;15420;48.636;9.798;2022-08-21T00:25:13;4.23;;;2.83;;
2760;SDS011;15420;48.636;9.798;2022-08-21T00:27:40;4.90;;;2.67;;
2760;SDS011;15420;48.636;9.798;2022-08-21T00:30:09;2.83;;;2.10;;
2760;SDS011;15420;48.636;9.798;2022-08-21T00:32:38;3.70;;;2.87;;
2760;SDS011;15420;48.636;9.798;2022-08-21T00:35:07;3.60;;;2.37;;
2760;SDS011;15420;48.636;9.798;2022-08-21T00:37:36;3.03;;;2.50;;
2760;SDS011;15420;48.636;9.798;2022-08-21T00:40:04;2.73;;;2.43;;
2760;SDS011;15420;48.636;9.798;2022-08-21T00:42:34;3.07;;;2.60;;
2760;SDS011;15420;48.636;9.798;2022-08-21T00:45:01;2.50;;;2.40;;
2760;SDS011;15420;48.636;9.798;2022-08-21T00:47:28;4.00;;;2.40;;
2760;SDS011;15420;48.636;9.798;2022-08-21T00:49:54;2.50;;;2.20;;
2760;SDS011;15420;48.636;9.798;2022-08-21T00:52:23;3.03;;;2.30;;
2760;SDS011;15420;48.636;9.798;2022-08-21T00:54:55;5.20;;;2.47;;
2760;SDS011;15420;48.636;9.798;2022-08-21T00:57:27;2.50;;;2.30;;
2760;SDS011;15420;48.636;9.798;2022-08-21T00:59:58;2.40;;;2.20;;
2760;SDS011;15420;48.636;9.798;2022-08-21T01:02:29;3.00;;;2.70;;
2760;SDS011;15420;48.636;9.798;2022-08-21T01:04:55;4.00;;;2.30;;
2760;SDS011;15420;48.636;9.798;2022-08-21T01:07:22;6.50;;;2.37;;
2760;SDS011;15420;48.636;9.798;2022-08-21T01:09:48;4.77;;;2.50;;
2760;SDS011;15420;48.636;9.798;2022-08-21T01:12:15;2.50;;;2.30;;
2760;SDS011;15420;48.636;9.798;2022-08-21T01:14:41;2.60;;;2.40;;
2760;SDS011;15420;48.636;9.798;2022-08-21T01:17:09;4.27;;;2.60;;
2760;SDS011;15420;48.636;9.798;2022-08-21T01:19:38;4.70;;;2.40;;
2760;SDS011;15420;48.636;9.798;2022-08-21T01:22:05;2.53;;;2.23;;
2760;SDS011;15420;48.636;9.798;2022-08-21T01:24:31;2.20;;;2.10;;
2760;SDS011;15420;48.636;9.798;2022-08-21T01:26:57;4.70;;;2.70;;
2760;SDS011;15420;48.636;9.798;2022-08-21T01:29:34;2.70;;;2.50;;
2760;SDS011;15420;48.636;9.798;2022-08-21T01:32:18;2.57;;;2.37;;
2760;SDS011;15420;48.636;9.798;2022-08-21T01:34:47;5.20;;;2.97;;
2760;SDS011;15420;48.636;9.798;2022-08-21T01:37:15;3.80;;;2.33;;
2760;SDS011;15420;48.636;9.798;2022-08-21T01:39:42;4.00;;;2.43;;
2760;SDS011;15420;48.636;9.798;2022-08-21T01:42:10;4.47;;;2.60;;
2760;SDS011;15420;48.636;9.798;2022-08-21T01:44:40;2.30;;;2.10;;
2760;SDS011;15420;48.636;9.798;2022-08-21T01:47:07;5.10;;;2.50;;
2760;SDS011;15420;48.636;9.798;2022-08-21T01:49:35;3.30;;;2.67;;
2760;SDS011;15420;48.636;9.798;2022-08-21T01:52:05;2.80;;;2.60;;
2760;SDS011;15420;48.636;9.798;2022-08-21T01:54:34;2.07;;;1.97;;
2760;SDS011;15420;48.636;9.798;2022-08-21T01:57:02;2.60;;;2.40;;
2760;SDS011;15420;48.636;9.798;2022-08-21T01:59:29;3.27;;;2.63;;
2760;SDS011;15420;48.636;9.798;2022-08-21T02:02:00;3.13;;;2.80;;
2760;SDS011;15420;48.636;9.798;2022-08-21T02:04:26;5.87;;;2.77;;
2760;SDS011;15420;48.636;9.798;2022-08-21T02:06:55;3.93;;;2.87;;
2760;SDS011;15420;48.636;9.798;2022-08-21T02:09:24;3.47;;;2.70;;
2760;SDS011;15420;48.636;9.798;2022-08-21T02:11:53;2.70;;;2.50;;
2760;SDS011;15420;48.636;9.798;2022-08-21T02:14:21;3.07;;;2.80;;
2760;SDS011;15420;48.636;9.798;2022-08-21T02:16:48;5.00;;;2.70;;
2760;SDS011;15420;48.636;9.798;2022-08-21T02:19:16;6.10;;;2.90;;
2760;SDS011;15420;48.636;9.798;2022-08-21T02:21:43;4.13;;;2.40;;
2760;SDS011;15420;48.636;9.798;2022-08-21T02:24:09;3.70;;;2.53;;
2760;SDS011;15420;48.636;9.798;2022-08-21T02:26:42;3.77;;;2.90;;
2760;SDS011;15420;48.636;9.798;2022-08-21T02:29:08;5.77;;;2.63;;
2760;SDS011;15420;48.636;9.798;2022-08-21T02:31:35;6.27;;;2.80;;
2760;SDS011;15420;48.636;9.798;2022-08-21T02:34:01;4.17;;;2.90;;
2760;SDS011;15420;48.636;9.798;2022-08-21T02:36:29;6.13;;;3.17;;
2760;SDS011;15420;48.636;9.798;2022-08-21T02:38:58;3.67;;;2.30;;
2760;SDS011;15420;48.636;9.798;2022-08-21T02:41:27;3.93;;;2.33;;
2760;SDS011;15420;48.636;9.798;2022-08-21T02:43:59;3.20;;;2.70;;
2760;SDS011;15420;48.636;9.798;2022-08-21T02:46:25;2.73;;;2.33;;
2760;SDS011;15420;48.636;9.798;2022-08-21T02:48:51;3.57;;;2.70;;
2760;SDS011;15420;48.636;9.798;2022-08-21T02:51:17;3.77;;;2.80;;
2760;SDS011;15420;48.636;9.798;2022-08-21T02:53:45;8.03;;;3.63;;
2760;SDS011;15420;48.636;9.798;2022-08-21T02:56:13;4.30;;;3.10;;
2760;SDS011;15420;48.636;9.798;2022-08-21T02:58:45;2.80;;;2.60;;
2760;SDS011;15420;48.636;9.798;2022-08-21T03:01:14;7.20;;;3.07;;
2760;SDS011;15420;48.636;9.798;2022-08-21T03:03:41;4.30;;;2.80;;
2760;SDS011;15420;48.636;9.798;2022-08-21T03:06:13;3.40;;;3.10;;
2760;SDS011;15420;48.636;9.798;2022-08-21T03:08:40;3.37;;;2.67;;
2760;SDS011;15420;48.636;9.798;2022-08-21T03:11:12;2.90;;;2.70;;
2760;SDS011;15420;48.636;9.798;2022-08-21T03:13:41;3.50;;;3.10;;
2760;SDS011;15420;48.636;9.798;2022-08-21T03:16:10;4.53;;;3.20;;
2760;SDS011;15420;48.636;9.798;2022-08-21T03:18:39;4.40;;;3.10;;
2760;SDS011;15420;48.636;9.798;2022-08-21T03:21:05;4.93;;;3.60;;
2760;SDS011;15420;48.636;9.798;2022-08-21T03:23:36;3.20;;;2.87;;
2760;SDS011;15420;48.636;9.798;2022-08-21T03:26:04;3.43;;;3.13;;
2760;SDS011;15420;48.636;9.798;2022-08-21T03:28:34;3.30;;;3.00;;
2760;SDS011;15420;48.636;9.798;2022-08-21T03:31:00;3.27;;;2.97;;
2760;SDS011;15420;48.636;9.798;2022-08-21T03:33:26;3.80;;;3.17;;
2760;SDS011;15420;48.636;9.798;2022-08-21T03:36:03;2.67;;;2.47;;
2760;SDS011;15420;48.636;9.798;2022-08-21T03:38:32;4.13;;;3.27;;
2760;SDS011;15420;48.636;9.798;2022-08-21T03:40:59;3.60;;;3.00;;
2760;SDS011;15420;48.636;9.798;2022-08-21T03:43:26;5.03;;;2.93;;
2760;SDS011;15420;48.636;9.798;2022-08-21T03:45:53;4.40;;;3.00;;
2760;SDS011;15420;48.636;9.798;2022-08-21T03:48:21;3.30;;;3.00;;
2760;SDS011;15420;48.636;9.798;2022-08-21T03:50:48;4.90;;;3.30;;
2760;SDS011;15420;48.636;9.798;2022-08-21T03:53:17;2.87;;;2.60;;
2760;SDS011;15420;48.636;9.798;2022-08-21T03:55:44;3.10;;;2.80;;
2760;SDS011;15420;48.636;9.798;2022-08-21T03:58:17;3.70;;;2.93;;
2760;SDS011;15420;48.636;9.798;2022-08-21T04:00:47;7.00;;;3.40;;
2760;SDS011;15420;48.636;9.798;2022-08-21T04:03:16;3.37;;;3.07;;
2760;SDS011;15420;48.636;9.798;2022-08-21T04:05:42;4.63;;;2.80;;
2760;SDS011;15420;48.636;9.798;2022-08-21T04:08:11;2.63;;;2.40;;
2760;SDS011;15420;48.636;9.798;2022-08-21T04:10:48;4.23;;;2.80;;
2760;SDS011;15420;48.636;9.798;2022-08-21T04:13:17;3.67;;;3.10;;
2760;SDS011;15420;48.636;9.798;2022-08-21T04:15:43;4.43;;;3.00;;
2760;SDS011;15420;48.636;9.798;2022-08-21T04:18:09;5.20;;;3.20;;
2760;SDS011;15420;48.636;9.798;2022-08-21T04:20:36;3.50;;;3.20;;
2760;SDS011;15420;48.636;9.798;2022-08-21T04:23:03;3.37;;;3.17;;
2760;SDS011;15420;48.636;9.798;2022-08-21T04:25:29;2.70;;;2.50;;
2760;SDS011;15420;48.636;9.798;2022-08-21T04:27:55;4.97;;;3.17;;
2760;SDS011;15420;48.636;9.798;2022-08-21T04:30:22;4.30;;;3.30;;
2760;SDS011;15420;48.636;9.798;2022-08-21T04:32:50;3.40;;;3.10;;
2760;SDS011;15420;48.636;9.798;2022-08-21T04:35:21;3.43;;;2.90;;
2760;SDS011;15420;48.636;9.798;2022-08-21T04:37:48;4.63;;;3.53;;
2760;SDS011;15420;48.636;9.798;2022-08-21T04:40:15;3.83;;;3.47;;
2760;SDS011;15420;48.636;9.798;2022-08-21T04:42:44;3.00;;;2.70;;
2760;SDS011;15420;48.636;9.798;2022-08-21T04:45:25;3.60;;;3.30;;
2760;SDS011;15420;48.636;9.798;2022-08-21T04:47:57;3.50;;;2.93;;
2760;SDS011;15420;48.636;9.798;2022-08-21T04:50:28;3.10;;;2.90;;
2760;SDS011;15420;48.636;9.798;2022-08-21T04:53:23;4.20;;;3.23;;
2760;SDS011;15420;48.636;9.798;2022-08-21T04:56:21;5.67;;;3.43;;
2760;SDS011;15420;48.636;9.798;2022-08-21T04:58:53;3.80;;;3.40;;
2760;SDS011;15420;48.636;9.798;2022-08-21T05:01:22;4.20;;;3.70;;
2760;SDS011;15420;48.636;9.798;2022-08-21T05:03:55;7.23;;;4.57;;
2760;SDS011;15420;48.636;9.798;2022-08-21T05:06:27;4.43;;;3.90;;
2760;SDS011;15420;48.636;9.798;2022-08-21T05:08:56;3.63;;;2.90;;
2760;SDS011;15420;48.636;9.798;2022-08-21T05:11:23;3.77;;;3.40;;
2760;SDS011;15420;48.636;9.798;2022-08-21T05:13:51;4.30;;;3.90;;
2760;SDS011;15420;48.636;9.798;2022-08-21T05:16:17;3.17;;;2.97;;
2760;SDS011;15420;48.636;9.798;2022-08-21T05:18:44;4.30;;;3.10;;
2760;SDS011;15420;48.636;9.798;2022-08-21T05:21:12;4.57;;;3.23;;
2760;SDS011;15420;48.636;9.798;2022-08-21T05:23:38;5.07;;;2.83;;
2760;SDS011;15420;48.636;9.798;2022-08-21T05:26:04;5.10;;;3.23;;
2760;SDS011;15420;48.636;9.798;2022-08-21T05:28:31;3.30;;;3.00;;
2760;SDS011;15420;48.636;9.798;2022-08-21T05:30:59;4.17;;;3.77;;
2760;SDS011;15420;48.636;9.798;2022-08-21T05:33:25;8.33;;;3.77;;
2760;SDS011;15420;48.636;9.798;2022-08-21T05:35:53;3.97;;;3.67;;
2760;SDS011;15420;48.636;9.798;2022-08-21T05:38:23;4.00;;;3.60;;
2760;SDS011;15420;48.636;9.798;2022-08-21T05:40:52;3.70;;;3.40;;
2760;SDS011;15420;48.636;9.798;2022-08-21T05:43:18;3.17;;;2.97;;
2760;SDS011;15420;48.636;9.798;2022-08-21T05:45:45;3.73;;;3.43;;
2760;SDS011;15420;48.636;9.798;2022-08-21T05:48:15;3.87;;;3.47;;
2760;SDS011;15420;48.636;9.798;2022-08-21T05:50:44;3.90;;;3.50;;
2760;SDS011;15420;48.636;9.798;2022-08-21T05:53:14;4.40;;;3.50;;
2760;SDS011;15420;48.636;9.798;2022-08-21T05:55:43;4.17;;;3.67;;
2760;SDS011;15420;48.636;9.798;2022-08-21T05:58:10;3.90;;;3.60;;
2760;SDS011;15420;48.636;9.798;2022-08-21T06:00:37;5.60;;;3.50;;
2760;SDS011;15420;48.636;9.798;2022-08-21T06:03:03;3.97;;;3.67;;
2760;SDS011;15420;48.636;9.798;2022-08-21T06:05:29;6.23;;;4.03;;
2760;SDS011;15420;48.636;9.798;2022-08-21T06:07:58;4.10;;;3.70;;
2760;SDS011;15420;48.636;9.798;2022-08-21T06:10:26;6.40;;;3.80;;
2760;SDS011;15420;48.636;9.798;2022-08-21T06:12:53;4.23;;;3.50;;
2760;SDS011;15420;48.636;9.798;2022-08-21T06:15:20;4.83;;;3.53;;
2760;SDS011;15420;48.636;9.798;2022-08-21T06:17:46;6.40;;;4.10;;
2760;SDS011;15420;48.636;9.798;2022-08-21T06:20:12;4.20;;;3.80;;
2760;SDS011;15420;48.636;9.798;2022-08-21T06:22:41;4.07;;;3.67;;
2760;SDS011;15420;48.636;9.798;2022-08-21T06:25:07;6.57;;;4.00;;
2760;SDS011;15420;48.636;9.798;2022-08-21T06:27:34;4.70;;;3.20;;
2760;SDS011;15420;48.636;9.798;2022-08-21T06:30:00;6.40;;;3.97;;
2760;SDS011;15420;48.636;9.798;2022-08-21T06:32:29;4.00;;;3.60;;
2760;SDS011;15420;48.636;9.798;2022-08-21T06:35:00;3.93;;;3.30;;
2760;SDS011;15420;48.636;9.798;2022-08-21T06:37:27;4.07;;;3.57;;
2760;SDS011;15420;48.636;9.798;2022-08-21T06:39:54;3.37;;;3.07;;
2760;SDS011;15420;48.636;9.798;2022-08-21T06:42:27;3.93;;;3.50;;
2760;SDS011;15420;48.636;9.798;2022-08-21T06:44:53;3.60;;;3.40;;
2760;SDS011;15420;48.636;9.798;2022-08-21T06:47:19;5.23;;;3.60;;
2760;SDS011;15420;48.636;9.798;2022-08-21T06:49:45;4.07;;;3.67;;
2760;SDS011;15420;48.636;9.798;2022-08-21T06:52:14;3.57;;;3.27;;
2760;SDS011;15420;48.636;9.798;2022-08-21T06:54:42;4.63;;;4.03;;
2760;SDS011;15420;48.636;9.798;2022-08-21T06:57:08;3.83;;;3.50;;
2760;SDS011;15420;48.636;9.798;2022-08-21T06:59:37;3.33;;;3.07;;
2760;SDS011;15420;48.636;9.798;2022-08-21T07:02:03;7.47;;;3.77;;
2760;SDS011;15420;48.636;9.798;2022-08-21T07:04:29;4.50;;;4.07;;
2760;SDS011;15420;48.636;9.798;2022-08-21T07:06:55;5.00;;;3.47;;
2760;SDS011;15420;48.636;9.798;2022-08-21T07:09:24;5.80;;;3.63;;
2760;SDS011;15420;48.636;9.798;2022-08-21T07:11:52;3.50;;;3.17;;
2760;SDS011;15420;48.636;9.798;2022-08-21T07:14:20;3.63;;;3.33;;
2760;SDS011;15420;48.636;9.798;2022-08-21T07:16:47;3.97;;;3.07;;
2760;SDS011;15420;48.636;9.798;2022-08-21T07:19:18;3.77;;;3.47;;
2760;SDS011;15420;48.636;9.798;2022-08-21T07:21:47;3.30;;;3.00;;
2760;SDS011;15420;48.636;9.798;2022-08-21T07:24:15;3.53;;;3.23;;
2760;SDS011;15420;48.636;9.798;2022-08-21T07:26:41;4.00;;;3.10;;
2760;SDS011;15420;48.636;9.798;2022-08-21T07:29:07;3.33;;;2.90;;
2760;SDS011;15420;48.636;9.798;2022-08-21T07:31:33;5.93;;;3.60;;
2760;SDS011;15420;48.636;9.798;2022-08-21T07:34:02;4.07;;;3.67;;
2760;SDS011;15420;48.636;9.798;2022-08-21T07:36:30;4.20;;;3.20;;
2760;SDS011;15420;48.636;9.798;2022-08-21T07:38:56;3.40;;;3.10;;
2760;SDS011;15420;48.636;9.798;2022-08-21T07:41:28;3.20;;;2.90;;
2760;SDS011;15420;48.636;9.798;2022-08-21T07:44:01;3.63;;;3.33;;
2760;SDS011;15420;48.636;9.798;2022-08-21T07:46:28;3.73;;;3.23;;
2760;SDS011;15420;48.636;9.798;2022-08-21T07:48:58;3.33;;;3.03;;
2760;SDS011;15420;48.636;9.798;2022-08-21T07:51:25;3.67;;;3.10;;
2760;SDS011;15420;48.636;9.798;2022-08-21T07:53:55;5.57;;;3.43;;
2760;SDS011;15420;48.636;9.798;2022-08-21T07:56:26;6.53;;;4.10;;
2760;SDS011;15420;48.636;9.798;2022-08-21T07:58:58;5.20;;;3.50;;
2760;SDS011;15420;48.636;9.798;2022-08-21T08:01:24;5.10;;;3.23;;
2760;SDS011;15420;48.636;9.798;2022-08-21T08:03:50;5.23;;;3.80;;
2760;SDS011;15420;48.636;9.798;2022-08-21T08:06:17;3.80;;;3.40;;
2760;SDS011;15420;48.636;9.798;2022-08-21T08:08:44;4.67;;;3.57;;
2760;SDS011;15420;48.636;9.798;2022-08-21T08:11:10;4.30;;;3.90;;
2760;SDS011;15420;48.636;9.798;2022-08-21T08:13:50;4.40;;;3.60;;
2760;SDS011;15420;48.636;9.798;2022-08-21T08:16:18;5.00;;;3.70;;
2760;SDS011;15420;48.636;9.798;2022-08-21T08:18:45;5.70;;;3.70;;
2760;SDS011;15420;48.636;9.798;2022-08-21T08:21:11;4.10;;;3.80;;
2760;SDS011;15420;48.636;9.798;2022-08-21T08:23:40;4.10;;;3.70;;
2760;SDS011;15420;48.636;9.798;2022-08-21T08:26:06;3.67;;;3.37;;
2760;SDS011;15420;48.636;9.798;2022-08-21T08:28:37;5.50;;;3.83;;
2760;SDS011;15420;48.636;9.798;2022-08-21T08:31:06;5.80;;;3.80;;
2760;SDS011;15420;48.636;9.798;2022-08-21T08:33:34;4.77;;;3.00;;
2760;SDS011;15420;48.636;9.798;2022-08-21T08:36:00;4.80;;;3.10;;
2760;SDS011;15420;48.636;9.798;2022-08-21T08:38:29;4.67;;;3.37;;
2760;SDS011;15420;48.636;9.798;2022-08-21T08:43:36;3.50;;;3.10;;
2760;SDS011;15420;48.636;9.798;2022-08-21T08:46:05;3.70;;;3.40;;
2760;SDS011;15420;48.636;9.798;2022-08-21T08:51:30;3.70;;;2.70;;
2760;SDS011;15420;48.636;9.798;2022-08-21T08:54:11;3.80;;;3.50;;
2760;SDS011;15420;48.636;9.798;2022-08-21T08:56:42;4.30;;;3.47;;
2760;SDS011;15420;48.636;9.798;2022-08-21T08:59:15;4.10;;;3.70;;
2760;SDS011;15420;48.636;9.798;2022-08-21T09:01:49;4.53;;;3.50;;
2760;SDS011;15420;48.636;9.798;2022-08-21T09:04:18;5.70;;;3.67;;
2760;SDS011;15420;48.636;9.798;2022-08-21T09:12:06;4.10;;;3.27;;
2760;SDS011;15420;48.636;9.798;2022-08-21T09:17:52;4.00;;;3.60;;
2760;SDS011;15420;48.636;9.798;2022-08-21T09:26:47;4.33;;;3.93;;
2760;SDS011;15420;48.636;9.798;2022-08-21T09:29:36;5.67;;;4.10;;
2760;SDS011;15420;48.636;9.798;2022-08-21T09:32:10;4.23;;;3.83;;
2760;SDS011;15420;48.636;9.798;2022-08-21T09:34:54;3.77;;;3.47;;
2760;SDS011;15420;48.636;9.798;2022-08-21T09:37:20;4.23;;;3.83;;
2760;SDS011;15420;48.636;9.798;2022-08-21T09:39:46;4.47;;;4.07;;
2760;SDS011;15420;48.636;9.798;2022-08-21T09:42:20;4.90;;;4.10;;
2760;SDS011;15420;48.636;9.798;2022-08-21T09:45:05;4.60;;;3.90;;
2760;SDS011;15420;48.636;9.798;2022-08-21T09:47:40;4.33;;;3.90;;
2760;SDS011;15420;48.636;9.798;2022-08-21T09:50:12;3.77;;;3.47;;
2760;SDS011;15420;48.636;9.798;2022-08-21T09:52:46;4.03;;;3.63;;
2760;SDS011;15420;48.636;9.798;2022-08-21T09:55:21;6.27;;;4.20;;
2760;SDS011;15420;48.636;9.798;2022-08-21T09:58:33;10.90;;;4.17;;
2760;SDS011;15420;48.636;9.798;2022-08-21T10:01:11;4.30;;;3.50;;
2760;SDS011;15420;48.636;9.798;2022-08-21T10:03:43;4.90;;;3.50;;
2760;SDS011;15420;48.636;9.798;2022-08-21T10:06:22;4.47;;;3.93;;
2760;SDS011;15420;48.636;9.798;2022-08-21T10:09:02;4.40;;;3.47;;
2760;SDS011;15420;48.636;9.798;2022-08-21T10:11:34;6.10;;;4.60;;
2760;SDS011;15420;48.636;9.798;2022-08-21T10:14:09;3.90;;;3.43;;
2760;SDS011;15420;48.636;9.798;2022-08-21T10:16:57;3.97;;;3.57;;
2760;SDS011;15420;48.636;9.798;2022-08-21T10:19:34;5.00;;;3.90;;
2760;SDS011;15420;48.636;9.798;2022-08-21T10:38:33;4.73;;;3.80;;
2760;SDS011;15420;48.636;9.798;2022-08-21T10:46:47;2.90;;;2.70;;
2760;SDS011;15420;48.636;9.798;2022-08-21T10:49:22;3.30;;;2.63;;
2760;SDS011;15420;48.636;9.798;2022-08-21T10:52:02;4.07;;;3.10;;
2760;SDS011;15420;48.636;9.798;2022-08-21T10:54:54;8.57;;;3.90;;
2760;SDS011;15420;48.636;9.798;2022-08-21T11:00:13;3.93;;;2.83;;
2760;SDS011;15420;48.636;9.798;2022-08-21T11:05:32;5.93;;;3.13;;
2760;SDS011;15420;48.636;9.798;2022-08-21T11:08:15;3.70;;;2.63;;
2760;SDS011;15420;48.636;9.798;2022-08-21T11:11:08;2.87;;;2.53;;
2760;SDS011;15420;48.636;9.798;2022-08-21T11:13:45;3.40;;;2.27;;
2760;SDS011;15420;48.636;9.798;2022-08-21T11:22:04;2.60;;;2.40;;
2760;SDS011;15420;48.636;9.798;2022-08-21T11:24:54;6.93;;;2.83;;
2760;SDS011;15420;48.636;9.798;2022-08-21T11:30:10;3.60;;;2.27;;
2760;SDS011;15420;48.636;9.798;2022-08-21T11:46:19;3.13;;;2.30;;
2760;SDS011;15420;48.636;9.798;2022-08-21T11:54:54;3.17;;;2.40;;
2760;SDS011;15420;48.636;9.798;2022-08-21T11:57:28;3.27;;;2.20;;
2760;SDS011;15420;48.636;9.798;2022-08-21T12:02:38;2.73;;;2.50;;
2760;SDS011;15420;48.636;9.798;2022-08-21T12:05:11;1.90;;;1.80;;
2760;SDS011;15420;48.636;9.798;2022-08-21T12:10:38;3.77;;;1.80;;
2760;SDS011;15420;48.636;9.798;2022-08-21T12:13:11;1.93;;;1.50;;
2760;SDS011;15420;48.636;9.798;2022-08-21T12:17:03;3.70;;;2.27;;
2760;SDS011;15420;48.636;9.798;2022-08-21T12:24:48;1.90;;;1.80;;
2760;SDS011;15420;48.636;9.798;2022-08-21T12:30:18;2.50;;;1.83;;
2760;SDS011;15420;48.636;9.798;2022-08-21T12:32:55;2.27;;;2.00;;
2760;SDS011;15420;48.636;9.798;2022-08-21T12:35:27;3.08;;;1.88;;
2760;SDS011;15420;48.636;9.798;2022-08-21T12:38:05;2.63;;;1.77;;
2760;SDS011;15420;48.636;9.798;2022-08-21T12:40:42;2.95;;;2.05;;
2760;SDS011;15420;48.636;9.798;2022-08-21T12:43:18;1.80;;;1.70;;
2760;SDS011;15420;48.636;9.798;2022-08-21T12:46:18;2.97;;;2.00;;
2760;SDS011;15420;48.636;9.798;2022-08-21T12:48:57;4.15;;;2.08;;
2760;SDS011;15420;48.636;9.798;2022-08-21T12:51:31;1.92;;;1.73;;
2760;SDS011;15420;48.636;9.798;2022-08-21T12:54:26;3.67;;;1.65;;
2760;SDS011;15420;48.636;9.798;2022-08-21T12:57:01;3.55;;;2.33;;
2760;SDS011;15420;48.636;9.798;2022-08-21T12:59:32;3.42;;;2.15;;
2760;SDS011;15420;48.636;9.798;2022-08-21T13:02:09;2.55;;;2.08;;
2760;SDS011;15420;48.636;9.798;2022-08-21T13:04:45;2.00;;;1.77;;
2760;SDS011;15420;48.636;9.798;2022-08-21T13:07:15;1.83;;;1.67;;
2760;SDS011;15420;48.636;9.798;2022-08-21T13:09:48;2.28;;;2.03;;
2760;SDS011;15420;48.636;9.798;2022-08-21T13:12:17;3.00;;;1.90;;
2760;SDS011;15420;48.636;9.798;2022-08-21T13:14:49;3.00;;;2.00;;
2760;SDS011;15420;48.636;9.798;2022-08-21T13:17:25;2.13;;;1.63;;
2760;SDS011;15420;48.636;9.798;2022-08-21T13:22:31;2.65;;;1.98;;
2760;SDS011;15420;48.636;9.798;2022-08-21T13:25:08;2.08;;;1.92;;
2760;SDS011;15420;48.636;9.798;2022-08-21T13:27:43;3.28;;;1.75;;
2760;SDS011;15420;48.636;9.798;2022-08-21T13:30:27;1.60;;;1.50;;
2760;SDS011;15420;48.636;9.798;2022-08-21T13:32:58;3.03;;;2.05;;
2760;SDS011;15420;48.636;9.798;2022-08-21T13:35:36;2.22;;;2.03;;
2760;SDS011;15420;48.636;9.798;2022-08-21T13:38:12;3.10;;;1.85;;
2760;SDS011;15420;48.636;9.798;2022-08-21T13:40:41;2.22;;;1.85;;
2760;SDS011;15420;48.636;9.798;2022-08-21T13:43:14;2.22;;;1.77;;
2760;SDS011;15420;48.636;9.798;2022-08-21T13:45:52;2.72;;;1.77;;
2760;SDS011;15420;48.636;9.798;2022-08-21T13:48:20;3.42;;;1.80;;
2760;SDS011;15420;48.636;9.798;2022-08-21T13:50:50;3.60;;;2.00;;
2760;SDS011;15420;48.636;9.798;2022-08-21T13:53:27;3.60;;;1.90;;
2760;SDS011;15420;48.636;9.798;2022-08-21T13:55:57;1.70;;;1.60;;
2760;SDS011;15420;48.636;9.798;2022-08-21T13:58:31;3.47;;;2.05;;
2760;SDS011;15420;48.636;9.798;2022-08-21T14:01:17;2.08;;;1.70;;
2760;SDS011;15420;48.636;9.798;2022-08-21T14:03:44;1.75;;;1.63;;
2760;SDS011;15420;48.636;9.798;2022-08-21T14:06:18;3.05;;;1.95;;
2760;SDS011;15420;48.636;9.798;2022-08-21T14:08:59;1.65;;;1.55;;
2760;SDS011;15420;48.636;9.798;2022-08-21T14:11:33;1.65;;;1.55;;
2760;SDS011;15420;48.636;9.798;2022-08-21T14:14:05;2.13;;;1.80;;
2760;SDS011;15420;48.636;9.798;2022-08-21T14:16:53;2.25;;;2.05;;
2760;SDS011;15420;48.636;9.798;2022-08-21T14:19:27;4.90;;;1.77;;
2760;SDS011;15420;48.636;9.798;2022-08-21T14:22:21;3.95;;;2.20;;
2760;SDS011;15420;48.636;9.798;2022-08-21T14:27:33;1.65;;;1.55;;
2760;SDS011;15420;48.636;9.798;2022-08-21T14:30:11;1.90;;;1.75;;
2760;SDS011;15420;48.636;9.798;2022-08-21T14:32:47;2.33;;;1.70;;
2760;SDS011;15420;48.636;9.798;2022-08-21T14:35:13;2.28;;;1.77;;
2760;SDS011;15420;48.636;9.798;2022-08-21T14:37:42;2.30;;;2.10;;
2760;SDS011;15420;48.636;9.798;2022-08-21T14:40:10;2.20;;;2.10;;
2760;SDS011;15420;48.636;9.798;2022-08-21T14:42:40;1.85;;;1.75;;
2760;SDS011;15420;48.636;9.798;2022-08-21T14:45:10;2.28;;;2.08;;
2760;SDS011;15420;48.636;9.798;2022-08-21T14:47:40;1.85;;;1.75;;
2760;SDS011;15420;48.636;9.798;2022-08-21T14:50:08;1.80;;;1.70;;
2760;SDS011;15420;48.636;9.798;2022-08-21T14:52:36;1.70;;;1.60;;
2760;SDS011;15420;48.636;9.798;2022-08-21T14:55:05;3.00;;;1.38;;
2760;SDS011;15420;48.636;9.798;2022-08-21T14:57:35;1.45;;;1.35;;
2760;SDS011;15420;48.636;9.798;2022-08-21T15:00:03;1.60;;;1.50;;
2760;SDS011;15420;48.636;9.798;2022-08-21T15:02:32;2.00;;;1.90;;
2760;SDS011;15420;48.636;9.798;2022-08-21T15:04:58;2.45;;;1.88;;
2760;SDS011;15420;48.636;9.798;2022-08-21T15:07:25;1.80;;;1.50;;
2760;SDS011;15420;48.636;9.798;2022-08-21T15:09:51;1.75;;;1.55;;
2760;SDS011;15420;48.636;9.798;2022-08-21T15:12:18;3.25;;;1.50;;
2760;SDS011;15420;48.636;9.798;2022-08-21T15:14:44;1.92;;;1.83;;
2760;SDS011;15420;48.636;9.798;2022-08-21T15:17:13;1.85;;;1.75;;
2760;SDS011;15420;48.636;9.798;2022-08-21T15:19:40;2.25;;;1.83;;
2760;SDS011;15420;48.636;9.798;2022-08-21T15:22:06;1.80;;;1.70;;
2760;SDS011;15420;48.636;9.798;2022-08-21T15:24:36;2.55;;;1.80;;
2760;SDS011;15420;48.636;9.798;2022-08-21T15:27:03;2.03;;;1.83;;
2760;SDS011;15420;48.636;9.798;2022-08-21T15:29:35;4.15;;;1.90;;
2760;SDS011;15420;48.636;9.798;2022-08-21T15:32:14;2.65;;;1.88;;
2760;SDS011;15420;48.636;9.798;2022-08-21T15:34:44;2.25;;;1.60;;
2760;SDS011;15420;48.636;9.798;2022-08-21T15:37:10;1.90;;;1.70;;
2760;SDS011;15420;48.636;9.798;2022-08-21T15:39:38;2.00;;;1.48;;
2760;SDS011;15420;48.636;9.798;2022-08-21T15:42:05;1.25;;;1.15;;
2760;SDS011;15420;48.636;9.798;2022-08-21T15:44:32;1.83;;;1.60;;
2760;SDS011;15420;48.636;9.798;2022-08-21T15:46:59;1.55;;;1.45;;
2760;SDS011;15420;48.636;9.798;2022-08-21T15:49:25;2.33;;;1.70;;
2760;SDS011;15420;48.636;9.798;2022-08-21T15:51:54;1.85;;;1.67;;
2760;SDS011;15420;48.636;9.798;2022-08-21T15:54:20;1.58;;;1.48;;
2760;SDS011;15420;48.636;9.798;2022-08-21T15:56:47;1.83;;;1.70;;
2760;SDS011;15420;48.636;9.798;2022-08-21T15:59:16;1.90;;;1.77;;
2760;SDS011;15420;48.636;9.798;2022-08-21T16:01:46;2.58;;;1.75;;
2760;SDS011;15420;48.636;9.798;2022-08-21T16:04:19;2.60;;;1.60;;
2760;SDS011;15420;48.636;9.798;2022-08-21T16:06:48;2.50;;;1.58;;
2760;SDS011;15420;48.636;9.798;2022-08-21T16:09:15;1.70;;;1.60;;
2760;SDS011;15420;48.636;9.798;2022-08-21T16:11:44;1.50;;;1.40;;
2760;SDS011;15420;48.636;9.798;2022-08-21T16:14:13;2.10;;;1.90;;
2760;SDS011;15420;48.636;9.798;2022-08-21T16:16:42;1.58;;;1.40;;
2760;SDS011;15420;48.636;9.798;2022-08-21T16:19:09;2.25;;;1.73;;
2760;SDS011;15420;48.636;9.798;2022-08-21T16:21:38;1.70;;;1.60;;
2760;SDS011;15420;48.636;9.798;2022-08-21T16:24:05;2.43;;;1.80;;
2760;SDS011;15420;48.636;9.798;2022-08-21T16:26:31;4.90;;;1.60;;
2760;SDS011;15420;48.636;9.798;2022-08-21T16:29:00;1.70;;;1.53;;
2760;SDS011;15420;48.636;9.798;2022-08-21T16:31:28;1.70;;;1.57;;
2760;SDS011;15420;48.636;9.798;2022-08-21T16:33:56;2.60;;;1.70;;
2760;SDS011;15420;48.636;9.798;2022-08-21T16:36:23;1.80;;;1.70;;
2760;SDS011;15420;48.636;9.798;2022-08-21T16:38:51;6.83;;;1.90;;
2760;SDS011;15420;48.636;9.798;2022-08-21T16:41:21;3.47;;;1.63;;
2760;SDS011;15420;48.636;9.798;2022-08-21T16:43:51;2.00;;;1.80;;
2760;SDS011;15420;48.636;9.798;2022-08-21T16:46:20;2.70;;;1.93;;
2760;SDS011;15420;48.636;9.798;2022-08-21T16:48:46;3.00;;;2.10;;
2760;SDS011;15420;48.636;9.798;2022-08-21T16:51:14;2.83;;;2.13;;
2760;SDS011;15420;48.636;9.798;2022-08-21T16:53:41;2.27;;;2.07;;
2760;SDS011;15420;48.636;9.798;2022-08-21T16:56:08;2.00;;;1.83;;